Broadalbin, New York
Current Conditions -  °F | °C
As of 7:55 PM on Wednesday 22 Oct 2014 (Local Time) from KNY0 Reporting Station
Overcast Overcast  
Wind Chill: 44°   Ceiling: 4400
Heat Index: 48°   Visibility: 10mi
Dew Point: 42°   Wind: 9mph
Humidity: 79%   Direction: 20°NNE
Pressure: 30.01"   Gusts: NA
Location:  43.06°N, 74.2°W
Report Text: KNY0 222355Z AUTO 02008KT 10SM SCT028 OVC044 09/06 A3001 RMK AO2 60007 T00910057 10105 20085
Loading
Personal Weather Stations






























Interactive Weather Map
Tropical Storm Tracking
New forecast layout! Learn more

10-Day Weather Forecast

Advertisements
Track Severe Weather on mobile